Heloise — 3FLA7 — position and weather

sailwx.info

Track history (hours):
 
Tides and Currents Weather Stations Pressure Air Temp Water Temp Dewpoint Dewpoint Depression Visibility Wind Speed Wind Dir Waves Ship Positions

Heloise

Last reported at 2015-May-17 14:12 UTC. Time now 2015-May-24 21:23 UTC.
Position N 42°38' W 079°46'.

Length 186 m; draft 6.9 m.

Type: Cargo ship. MMSI: 352302000.

Date/timePositionNaut miles runAvg speedWind from/ knotsBaromVisibWave heightAir tempDewpointWater temp
2015-May-17 14:12N 42°38' W 079°46'  
2015-May-13 10:08N 45°14' W 074°12'8 9.6
2015-May-13 09:19N 45°14' W 074°01'6 7.7
2015-May-13 08:31N 45°18' W 073°56'1 1.2
2015-May-13 07:33N 45°19' W 073°55'4 4.2
2015-May-13 06:32N 45°22' W 073°50'7 7.6
2015-May-13 05:32N 45°25' W 073°40'4 4.4
2015-May-13 04:32N 45°24' W 073°34'3 3.1
2015-May-13 03:31N 45°26' W 073°30'  
2015-May-09 06:14N 46°14' W 072°46'811.1
2015-May-09 05:33N 46°17' W 072°36'9 9.5
2015-May-09 04:33N 46°23' W 072°25'1010.3
2015-May-09 03:32N 46°30' W 072°14'  
Track history (hours):
 
Tides and Currents Weather Stations Pressure Air Temp Water Temp Dewpoint Dewpoint Depression Visibility Wind Speed Wind Dir Waves Ship Positions

Heloise

Last reported at 2015-May-17 14:12 UTC. Time now 2015-May-24 21:23 UTC.
Position N 42°38' W 079°46'.

Length 186 m; draft 6.9 m.

Type: Cargo ship. MMSI: 352302000.

Date/timePositionNaut miles runAvg speedWind from/ knotsBaromVisibWave heightAir tempDewpointWater temp
2015-May-17 14:12N 42°38' W 079°46'  
2015-May-13 10:08N 45°14' W 074°12'8 9.6
2015-May-13 09:19N 45°14' W 074°01'6 7.7
2015-May-13 08:31N 45°18' W 073°56'1 1.2
2015-May-13 07:33N 45°19' W 073°55'4 4.2
2015-May-13 06:32N 45°22' W 073°50'7 7.6
2015-May-13 05:32N 45°25' W 073°40'4 4.4
2015-May-13 04:32N 45°24' W 073°34'3 3.1
2015-May-13 03:31N 45°26' W 073°30'  
2015-May-09 06:14N 46°14' W 072°46'811.1
2015-May-09 05:33N 46°17' W 072°36'9 9.5
2015-May-09 04:33N 46°23' W 072°25'1010.3
2015-May-09 03:32N 46°30' W 072°14'  

Dump ship's entire track history